Acworth, NH

9:27 PM EDT on October 24, 2014 (GMT -0400)
Beaudry Development | Change Station
CLOSE
Current Station
Personal Weather Station
Location: Charlestown, NH
Elevation: 600 ft
Nearby Weather Stations

Elev 600 ft 43.26 °N, 72.40 °W | Updated 0 second ago

Overcast
Overcast
46.6 °F
Feels Like 47 °F
N
0.0
Wind Variable Wind from WNW
Gusts 1.0 mph

Today
High -- | Low -- °F
--% Chance of Precip.
Yesterday
High -- | Low -- °F
Precip. -- in
7:14 AM 5:52 PM
New Moon, 1% visible
Pressure 29.81 in
Visibility 10.0 miles
Clouds Overcast 2600 ft
Windchill 47 °F
Dew Point 44 °F
Humidity 89%
Rainfall 0.05 in
Snow Depth Not available.
UV 0 out of 12
Pollen .10 out of 12
Air Quality Not available.
Flu Activity Sporadic
METAR KVSF 250054Z AUTO 00000KT 10SM OVC026 08/04 A2980 RMK AO2 SLP093 T00830044

More Conditions Fewer Conditions

Pressure 29.81 in
Visibility 10.0 miles
Clouds Overcast 2600 ft
Windchill 47 °F
Dew Point 44 °F
Humidity 89%
Rainfall 0.05 in
Snow Depth Not available.
UV 0 out of 12
Pollen .10 out of 12
Air Quality Not available.
Flu Activity Sporadic
METAR KVSF 250054Z AUTO 00000KT 10SM OVC026 08/04 A2980 RMK AO2 SLP093 T00830044

More Conditions Fewer Conditions

10-Day Weather Forecast

Almanac

Astronomy

Oct. 24, 2014 Rise Set
Actual Time 7:14 AM EDT 5:52 PM EDT
Civil Twilight 6:45 AM EDT 6:21 PM EDT
Nautical Twilight 6:11 AM EDT 6:54 PM EDT
Astronomical Twilight 5:38 AM EDT 7:27 PM EDT
Moon 7:51 AM EDT (10/24) 6:29 PM EDT (10/24)
Length of Visible Light 11h 36m
Length of Day
10h 38m
Tomorrow will be 2m 44s shorter.
New Moon, 1% of the Moon is Illuminated
Today
New Moon
Oct 30
First Quarter
Nov 6
Full
Nov 14
Last Quarter
Nov 22
New

Today's Extremes

State Highs State Lows

Community

WunderPhotos

Upload Photos

1,764,741 photos uploaded!

WunderBlogs® & News

Nearby

Air Quality

  Air Quality AQ Index Pollutant
Friday Good
PM2.5
Friday Good
OZONE
Saturday Good
PM2.5
Saturday Good
OZONE
Sunday Good
PM2.5
Sunday Good
OZONE
Monday Good
PM2.5
Monday Good
OZONE

Snow Depth

Station Depth Elevation
No new snow has been reported.

Earthquake Activity

City Distance Mag. Time & Date
No recent earthquake activity has been reported nearby.
Minimum magnitude displayed is 2.5.

Coastal Water Temperatures

Place Temperature
No Stations Reporting

Nearby Weather Stations